sensor_id;sensor_type;location;lat;lon;timestamp;temperature;humidity
16846;DHT22;8539;53.188;8.696;2023-02-23T00:01:40;6.00;99.90
16846;DHT22;8539;53.188;8.696;2023-02-23T00:04:07;6.00;99.90
16846;DHT22;8539;53.188;8.696;2023-02-23T00:06:34;6.10;99.90
16846;DHT22;8539;53.188;8.696;2023-02-23T00:09:02;6.00;99.90
16846;DHT22;8539;53.188;8.696;2023-02-23T00:11:32;5.90;99.90
16846;DHT22;8539;53.188;8.696;2023-02-23T00:13:58;6.00;99.90
16846;DHT22;8539;53.188;8.696;2023-02-23T00:16:26;6.10;99.90
16846;DHT22;8539;53.188;8.696;2023-02-23T00:18:57;6.00;99.90
16846;DHT22;8539;53.188;8.696;2023-02-23T00:21:27;6.00;99.90
16846;DHT22;8539;53.188;8.696;2023-02-23T00:24:07;6.10;99.90
16846;DHT22;8539;53.188;8.696;2023-02-23T00:26:38;6.10;99.90
16846;DHT22;8539;53.188;8.696;2023-02-23T00:29:11;6.10;99.90
16846;DHT22;8539;53.188;8.696;2023-02-23T00:31:38;6.10;99.90
16846;DHT22;8539;53.188;8.696;2023-02-23T00:34:06;6.10;99.90
16846;DHT22;8539;53.188;8.696;2023-02-23T00:36:33;6.10;99.90
16846;DHT22;8539;53.188;8.696;2023-02-23T00:39:05;6.20;99.90
16846;DHT22;8539;53.188;8.696;2023-02-23T00:41:42;6.20;99.90
16846;DHT22;8539;53.188;8.696;2023-02-23T00:44:11;6.20;99.90
16846;DHT22;8539;53.188;8.696;2023-02-23T00:46:41;6.20;99.90
16846;DHT22;8539;53.188;8.696;2023-02-23T00:49:10;6.30;99.90
16846;DHT22;8539;53.188;8.696;2023-02-23T00:51:38;6.30;99.90
16846;DHT22;8539;53.188;8.696;2023-02-23T00:54:05;6.30;99.90
16846;DHT22;8539;53.188;8.696;2023-02-23T00:56:32;6.30;99.90
16846;DHT22;8539;53.188;8.696;2023-02-23T00:58:58;6.40;99.90
16846;DHT22;8539;53.188;8.696;2023-02-23T01:01:25;6.40;99.90
16846;DHT22;8539;53.188;8.696;2023-02-23T01:03:51;6.50;99.90
16846;DHT22;8539;53.188;8.696;2023-02-23T01:06:21;6.50;99.90
16846;DHT22;8539;53.188;8.696;2023-02-23T01:08:48;6.60;99.90
16846;DHT22;8539;53.188;8.696;2023-02-23T01:11:27;6.60;99.90
16846;DHT22;8539;53.188;8.696;2023-02-23T01:13:55;6.60;99.90
16846;DHT22;8539;53.188;8.696;2023-02-23T01:16:24;6.60;99.90
16846;DHT22;8539;53.188;8.696;2023-02-23T01:18:54;6.70;99.90
16846;DHT22;8539;53.188;8.696;2023-02-23T01:21:23;6.70;99.90
16846;DHT22;8539;53.188;8.696;2023-02-23T01:23:51;6.70;99.90
16846;DHT22;8539;53.188;8.696;2023-02-23T01:26:25;6.70;99.90
16846;DHT22;8539;53.188;8.696;2023-02-23T01:28:54;6.70;99.90
16846;DHT22;8539;53.188;8.696;2023-02-23T01:31:22;6.70;99.90
16846;DHT22;8539;53.188;8.696;2023-02-23T01:33:53;6.70;99.90
16846;DHT22;8539;53.188;8.696;2023-02-23T01:36:19;6.70;99.90
16846;DHT22;8539;53.188;8.696;2023-02-23T01:38:45;6.70;99.90
16846;DHT22;8539;53.188;8.696;2023-02-23T01:41:11;6.70;99.90
16846;DHT22;8539;53.188;8.696;2023-02-23T01:46:40;6.80;99.90
16846;DHT22;8539;53.188;8.696;2023-02-23T01:49:14;6.80;99.90
16846;DHT22;8539;53.188;8.696;2023-02-23T01:51:45;6.80;99.90
16846;DHT22;8539;53.188;8.696;2023-02-23T01:54:16;6.80;99.90
16846;DHT22;8539;53.188;8.696;2023-02-23T01:56:46;6.80;99.90
16846;DHT22;8539;53.188;8.696;2023-02-23T01:59:16;6.80;99.90
16846;DHT22;8539;53.188;8.696;2023-02-23T02:01:43;6.90;99.90
16846;DHT22;8539;53.188;8.696;2023-02-23T02:04:12;6.90;99.90
16846;DHT22;8539;53.188;8.696;2023-02-23T02:06:44;6.90;99.90
16846;DHT22;8539;53.188;8.696;2023-02-23T02:09:14;6.90;99.90
16846;DHT22;8539;53.188;8.696;2023-02-23T02:11:44;6.90;99.90
16846;DHT22;8539;53.188;8.696;2023-02-23T02:16:57;7.10;99.90
16846;DHT22;8539;53.188;8.696;2023-02-23T02:23:00;7.00;99.90
16846;DHT22;8539;53.188;8.696;2023-02-23T02:28:52;7.10;99.90
16846;DHT22;8539;53.188;8.696;2023-02-23T02:37:22;7.10;99.90
16846;DHT22;8539;53.188;8.696;2023-02-23T02:43:05;7.10;99.90
16846;DHT22;8539;53.188;8.696;2023-02-23T02:48:47;7.10;99.90
16846;DHT22;8539;53.188;8.696;2023-02-23T02:51:21;7.10;99.90
16846;DHT22;8539;53.188;8.696;2023-02-23T02:54:02;7.10;99.90
16846;DHT22;8539;53.188;8.696;2023-02-23T02:56:35;7.10;99.90
16846;DHT22;8539;53.188;8.696;2023-02-23T02:59:11;7.10;99.90
16846;DHT22;8539;53.188;8.696;2023-02-23T03:01:57;7.10;99.90
16846;DHT22;8539;53.188;8.696;2023-02-23T03:04:41;7.10;99.90
16846;DHT22;8539;53.188;8.696;2023-02-23T03:07:33;7.10;99.90
16846;DHT22;8539;53.188;8.696;2023-02-23T03:16:58;7.20;99.90
16846;DHT22;8539;53.188;8.696;2023-02-23T03:19:59;7.20;99.90
16846;DHT22;8539;53.188;8.696;2023-02-23T03:22:59;7.30;99.90
16846;DHT22;8539;53.188;8.696;2023-02-23T03:26:08;7.20;99.90
16846;DHT22;8539;53.188;8.696;2023-02-23T03:29:11;7.20;99.90
16846;DHT22;8539;53.188;8.696;2023-02-23T03:32:30;7.20;99.90
16846;DHT22;8539;53.188;8.696;2023-02-23T03:35:24;7.10;99.90
16846;DHT22;8539;53.188;8.696;2023-02-23T03:38:26;7.10;99.90
16846;DHT22;8539;53.188;8.696;2023-02-23T03:41:14;7.10;99.90
16846;DHT22;8539;53.188;8.696;2023-02-23T03:44:08;7.30;99.90
16846;DHT22;8539;53.188;8.696;2023-02-23T03:46:55;7.10;99.90
16846;DHT22;8539;53.188;8.696;2023-02-23T03:49:41;7.20;99.90
16846;DHT22;8539;53.188;8.696;2023-02-23T03:52:32;7.20;99.90
16846;DHT22;8539;53.188;8.696;2023-02-23T03:55:23;7.20;99.90
16846;DHT22;8539;53.188;8.696;2023-02-23T03:58:13;7.20;99.90
16846;DHT22;8539;53.188;8.696;2023-02-23T04:01:01;7.20;99.90
16846;DHT22;8539;53.188;8.696;2023-02-23T04:03:48;7.20;99.90
16846;DHT22;8539;53.188;8.696;2023-02-23T04:06:38;7.20;99.90
16846;DHT22;8539;53.188;8.696;2023-02-23T04:09:23;7.20;99.90
16846;DHT22;8539;53.188;8.696;2023-02-23T04:12:13;7.20;99.90
16846;DHT22;8539;53.188;8.696;2023-02-23T04:15:13;7.20;99.90
16846;DHT22;8539;53.188;8.696;2023-02-23T04:17:41;7.20;99.90
16846;DHT22;8539;53.188;8.696;2023-02-23T04:20:09;7.20;99.90
16846;DHT22;8539;53.188;8.696;2023-02-23T04:22:37;7.20;99.90
16846;DHT22;8539;53.188;8.696;2023-02-23T04:25:04;7.30;99.90
16846;DHT22;8539;53.188;8.696;2023-02-23T04:27:31;7.30;99.90
16846;DHT22;8539;53.188;8.696;2023-02-23T04:29:57;7.30;99.90
16846;DHT22;8539;53.188;8.696;2023-02-23T04:32:23;7.30;99.90
16846;DHT22;8539;53.188;8.696;2023-02-23T04:34:49;7.30;99.90
16846;DHT22;8539;53.188;8.696;2023-02-23T04:37:15;7.30;99.90
16846;DHT22;8539;53.188;8.696;2023-02-23T04:39:41;7.30;99.90
16846;DHT22;8539;53.188;8.696;2023-02-23T04:42:13;7.30;99.90
16846;DHT22;8539;53.188;8.696;2023-02-23T04:44:39;7.30;99.90
16846;DHT22;8539;53.188;8.696;2023-02-23T04:47:05;7.40;99.90
16846;DHT22;8539;53.188;8.696;2023-02-23T04:49:31;7.40;99.90
16846;DHT22;8539;53.188;8.696;2023-02-23T04:51:57;7.50;99.90
16846;DHT22;8539;53.188;8.696;2023-02-23T04:54:25;7.30;99.90
16846;DHT22;8539;53.188;8.696;2023-02-23T04:56:51;7.40;99.90
16846;DHT22;8539;53.188;8.696;2023-02-23T04:59:17;7.70;99.90
16846;DHT22;8539;53.188;8.696;2023-02-23T05:01:43;7.40;99.90
16846;DHT22;8539;53.188;8.696;2023-02-23T05:04:10;7.80;99.90
16846;DHT22;8539;53.188;8.696;2023-02-23T05:06:36;7.40;99.90
16846;DHT22;8539;53.188;8.696;2023-02-23T05:09:02;7.40;99.90
16846;DHT22;8539;53.188;8.696;2023-02-23T05:11:29;7.50;99.90
16846;DHT22;8539;53.188;8.696;2023-02-23T05:13:55;7.40;99.90
16846;DHT22;8539;53.188;8.696;2023-02-23T05:16:22;7.40;99.90
16846;DHT22;8539;53.188;8.696;2023-02-23T05:18:50;7.60;99.90
16846;DHT22;8539;53.188;8.696;2023-02-23T05:21:16;7.40;99.90
16846;DHT22;8539;53.188;8.696;2023-02-23T05:23:43;7.70;99.90
16846;DHT22;8539;53.188;8.696;2023-02-23T05:26:11;7.50;99.90
16846;DHT22;8539;53.188;8.696;2023-02-23T05:28:40;7.50;99.90
16846;DHT22;8539;53.188;8.696;2023-02-23T05:31:06;7.50;99.90
16846;DHT22;8539;53.188;8.696;2023-02-23T05:33:34;7.50;99.90
16846;DHT22;8539;53.188;8.696;2023-02-23T05:36:11;7.50;99.90
16846;DHT22;8539;53.188;8.696;2023-02-23T05:38:38;7.40;99.90
16846;DHT22;8539;53.188;8.696;2023-02-23T05:41:09;7.40;99.90
16846;DHT22;8539;53.188;8.696;2023-02-23T05:43:36;7.50;99.90
16846;DHT22;8539;53.188;8.696;2023-02-23T05:46:10;7.40;99.90
16846;DHT22;8539;53.188;8.696;2023-02-23T05:48:36;7.50;99.90
16846;DHT22;8539;53.188;8.696;2023-02-23T05:51:09;7.40;99.90
16846;DHT22;8539;53.188;8.696;2023-02-23T05:53:35;7.50;99.90
16846;DHT22;8539;53.188;8.696;2023-02-23T05:56:03;7.40;99.90
16846;DHT22;8539;53.188;8.696;2023-02-23T05:58:30;7.40;99.90
16846;DHT22;8539;53.188;8.696;2023-02-23T06:00:56;7.40;99.90
16846;DHT22;8539;53.188;8.696;2023-02-23T06:03:22;7.30;99.90
16846;DHT22;8539;53.188;8.696;2023-02-23T06:05:53;7.50;99.90
16846;DHT22;8539;53.188;8.696;2023-02-23T06:08:19;7.40;99.90
16846;DHT22;8539;53.188;8.696;2023-02-23T06:10:46;7.30;99.90
16846;DHT22;8539;53.188;8.696;2023-02-23T06:13:13;7.30;99.90
16846;DHT22;8539;53.188;8.696;2023-02-23T06:15:40;7.30;99.90
16846;DHT22;8539;53.188;8.696;2023-02-23T06:18:06;7.30;99.90
16846;DHT22;8539;53.188;8.696;2023-02-23T06:20:34;7.60;99.90
16846;DHT22;8539;53.188;8.696;2023-02-23T06:23:01;7.30;99.90
16846;DHT22;8539;53.188;8.696;2023-02-23T06:25:27;7.40;99.90
16846;DHT22;8539;53.188;8.696;2023-02-23T06:27:53;7.20;99.90
16846;DHT22;8539;53.188;8.696;2023-02-23T06:30:19;7.20;99.90
16846;DHT22;8539;53.188;8.696;2023-02-23T06:32:45;7.20;99.90
16846;DHT22;8539;53.188;8.696;2023-02-23T06:35:12;7.20;99.90
16846;DHT22;8539;53.188;8.696;2023-02-23T06:37:38;7.20;99.90
16846;DHT22;8539;53.188;8.696;2023-02-23T06:40:05;7.20;99.90
16846;DHT22;8539;53.188;8.696;2023-02-23T06:42:32;7.20;99.90
16846;DHT22;8539;53.188;8.696;2023-02-23T06:45:01;7.20;99.90
16846;DHT22;8539;53.188;8.696;2023-02-23T06:47:27;7.10;99.90
16846;DHT22;8539;53.188;8.696;2023-02-23T06:49:53;7.10;99.90
16846;DHT22;8539;53.188;8.696;2023-02-23T06:52:20;7.10;99.90
16846;DHT22;8539;53.188;8.696;2023-02-23T06:54:46;7.10;99.90
16846;DHT22;8539;53.188;8.696;2023-02-23T06:57:14;7.20;99.90
16846;DHT22;8539;53.188;8.696;2023-02-23T06:59:41;7.10;99.90
16846;DHT22;8539;53.188;8.696;2023-02-23T07:02:11;7.10;99.90
16846;DHT22;8539;53.188;8.696;2023-02-23T07:04:37;7.10;99.90
16846;DHT22;8539;53.188;8.696;2023-02-23T07:07:03;7.10;99.90
16846;DHT22;8539;53.188;8.696;2023-02-23T07:09:30;7.10;99.90
16846;DHT22;8539;53.188;8.696;2023-02-23T07:11:56;7.00;99.90
16846;DHT22;8539;53.188;8.696;2023-02-23T07:14:22;7.20;99.90
16846;DHT22;8539;53.188;8.696;2023-02-23T07:16:48;7.10;99.90
16846;DHT22;8539;53.188;8.696;2023-02-23T07:19:14;7.10;99.90
16846;DHT22;8539;53.188;8.696;2023-02-23T07:21:40;7.00;99.90
16846;DHT22;8539;53.188;8.696;2023-02-23T07:24:06;7.00;99.90
16846;DHT22;8539;53.188;8.696;2023-02-23T07:26:34;7.00;99.90
16846;DHT22;8539;53.188;8.696;2023-02-23T07:29:00;7.00;99.90
16846;DHT22;8539;53.188;8.696;2023-02-23T07:31:27;7.10;99.90
16846;DHT22;8539;53.188;8.696;2023-02-23T07:33:54;7.10;99.90
16846;DHT22;8539;53.188;8.696;2023-02-23T07:36:21;7.10;99.90
16846;DHT22;8539;53.188;8.696;2023-02-23T07:38:47;7.10;99.90
16846;DHT22;8539;53.188;8.696;2023-02-23T07:41:13;7.20;99.90
16846;DHT22;8539;53.188;8.696;2023-02-23T07:43:39;7.10;99.90
16846;DHT22;8539;53.188;8.696;2023-02-23T07:46:06;7.30;99.90
16846;DHT22;8539;53.188;8.696;2023-02-23T07:48:33;7.20;99.90
16846;DHT22;8539;53.188;8.696;2023-02-23T07:50:59;7.10;99.90
16846;DHT22;8539;53.188;8.696;2023-02-23T07:53:25;7.10;99.90
16846;DHT22;8539;53.188;8.696;2023-02-23T07:55:59;7.20;99.90
16846;DHT22;8539;53.188;8.696;2023-02-23T07:58:26;7.20;99.90
16846;DHT22;8539;53.188;8.696;2023-02-23T08:00:53;7.30;99.90
16846;DHT22;8539;53.188;8.696;2023-02-23T08:03:19;7.20;99.90
16846;DHT22;8539;53.188;8.696;2023-02-23T08:05:45;7.20;99.90
16846;DHT22;8539;53.188;8.696;2023-02-23T08:08:11;7.20;99.90
16846;DHT22;8539;53.188;8.696;2023-02-23T08:10:38;7.30;99.90
16846;DHT22;8539;53.188;8.696;2023-02-23T08:13:04;7.50;99.90
16846;DHT22;8539;53.188;8.696;2023-02-23T08:15:32;7.40;99.90
16846;DHT22;8539;53.188;8.696;2023-02-23T08:17:58;7.50;99.90
16846;DHT22;8539;53.188;8.696;2023-02-23T08:20:24;7.30;99.90
16846;DHT22;8539;53.188;8.696;2023-02-23T08:22:54;7.30;99.90
16846;DHT22;8539;53.188;8.696;2023-02-23T08:25:20;7.40;99.90
16846;DHT22;8539;53.188;8.696;2023-02-23T08:27:47;7.60;99.90
16846;DHT22;8539;53.188;8.696;2023-02-23T08:30:13;7.40;99.90
16846;DHT22;8539;53.188;8.696;2023-02-23T08:32:40;7.40;99.90
16846;DHT22;8539;53.188;8.696;2023-02-23T08:35:06;7.40;99.90
16846;DHT22;8539;53.188;8.696;2023-02-23T08:37:34;7.40;99.90
16846;DHT22;8539;53.188;8.696;2023-02-23T08:40:00;7.40;99.90
16846;DHT22;8539;53.188;8.696;2023-02-23T08:42:28;7.40;99.90
16846;DHT22;8539;53.188;8.696;2023-02-23T08:44:54;7.40;99.90
16846;DHT22;8539;53.188;8.696;2023-02-23T08:47:20;7.40;99.90
16846;DHT22;8539;53.188;8.696;2023-02-23T08:49:49;7.40;99.90
16846;DHT22;8539;53.188;8.696;2023-02-23T08:52:15;7.50;99.90
16846;DHT22;8539;53.188;8.696;2023-02-23T08:54:41;7.50;99.90
16846;DHT22;8539;53.188;8.696;2023-02-23T08:57:07;7.50;99.90
16846;DHT22;8539;53.188;8.696;2023-02-23T08:59:33;7.60;99.90
16846;DHT22;8539;53.188;8.696;2023-02-23T09:01:59;7.60;99.90
16846;DHT22;8539;53.188;8.696;2023-02-23T09:04:25;7.60;99.90
16846;DHT22;8539;53.188;8.696;2023-02-23T09:06:52;7.60;99.90
16846;DHT22;8539;53.188;8.696;2023-02-23T09:09:19;7.60;99.90
16846;DHT22;8539;53.188;8.696;2023-02-23T09:11:45;7.70;99.90
16846;DHT22;8539;53.188;8.696;2023-02-23T09:14:11;7.70;99.90
16846;DHT22;8539;53.188;8.696;2023-02-23T09:16:37;7.70;99.90
16846;DHT22;8539;53.188;8.696;2023-02-23T09:19:03;7.70;99.90
16846;DHT22;8539;53.188;8.696;2023-02-23T09:21:29;7.70;99.90
16846;DHT22;8539;53.188;8.696;2023-02-23T09:23:59;7.80;99.90
16846;DHT22;8539;53.188;8.696;2023-02-23T09:26:26;7.80;99.90
16846;DHT22;8539;53.188;8.696;2023-02-23T09:28:53;7.80;99.90
16846;DHT22;8539;53.188;8.696;2023-02-23T09:31:21;7.80;99.90
16846;DHT22;8539;53.188;8.696;2023-02-23T09:33:49;7.80;99.90
16846;DHT22;8539;53.188;8.696;2023-02-23T09:36:21;7.80;99.90
16846;DHT22;8539;53.188;8.696;2023-02-23T09:38:50;7.80;99.90
16846;DHT22;8539;53.188;8.696;2023-02-23T09:47:24;7.80;99.90
16846;DHT22;8539;53.188;8.696;2023-02-23T09:49:53;7.90;99.90
16846;DHT22;8539;53.188;8.696;2023-02-23T09:52:26;7.90;99.90
16846;DHT22;8539;53.188;8.696;2023-02-23T09:54:52;7.80;99.90
16846;DHT22;8539;53.188;8.696;2023-02-23T09:57:32;8.10;99.90
16846;DHT22;8539;53.188;8.696;2023-02-23T10:00:01;7.90;99.90
16846;DHT22;8539;53.188;8.696;2023-02-23T10:02:35;7.90;99.90
16846;DHT22;8539;53.188;8.696;2023-02-23T10:05:09;8.00;99.90
16846;DHT22;8539;53.188;8.696;2023-02-23T10:08:05;7.90;99.90
16846;DHT22;8539;53.188;8.696;2023-02-23T10:10:48;7.90;99.90
16846;DHT22;8539;53.188;8.696;2023-02-23T10:16:18;7.90;99.90
16846;DHT22;8539;53.188;8.696;2023-02-23T10:21:33;7.90;99.90
16846;DHT22;8539;53.188;8.696;2023-02-23T10:24:11;7.90;99.90
16846;DHT22;8539;53.188;8.696;2023-02-23T10:29:34;7.90;99.90
16846;DHT22;8539;53.188;8.696;2023-02-23T10:32:06;7.90;99.90
16846;DHT22;8539;53.188;8.696;2023-02-23T10:34:37;8.00;99.90
16846;DHT22;8539;53.188;8.696;2023-02-23T10:37:05;8.00;99.90
16846;DHT22;8539;53.188;8.696;2023-02-23T10:39:36;8.00;99.90
16846;DHT22;8539;53.188;8.696;2023-02-23T10:42:05;8.00;99.90
16846;DHT22;8539;53.188;8.696;2023-02-23T10:44:32;8.00;99.90
16846;DHT22;8539;53.188;8.696;2023-02-23T10:47:06;8.00;99.90
16846;DHT22;8539;53.188;8.696;2023-02-23T10:49:54;8.00;99.90
16846;DHT22;8539;53.188;8.696;2023-02-23T10:52:33;8.00;99.90
16846;DHT22;8539;53.188;8.696;2023-02-23T10:55:04;7.90;99.90
16846;DHT22;8539;53.188;8.696;2023-02-23T10:57:33;7.90;99.90
16846;DHT22;8539;53.188;8.696;2023-02-23T11:02:42;7.90;99.90
16846;DHT22;8539;53.188;8.696;2023-02-23T11:05:31;7.90;99.90
16846;DHT22;8539;53.188;8.696;2023-02-23T11:11:24;7.80;99.90
16846;DHT22;8539;53.188;8.696;2023-02-23T11:13:55;7.80;99.90
16846;DHT22;8539;53.188;8.696;2023-02-23T11:16:25;7.80;99.90
16846;DHT22;8539;53.188;8.696;2023-02-23T11:18:58;7.80;99.90
16846;DHT22;8539;53.188;8.696;2023-02-23T11:24:35;7.80;99.90
16846;DHT22;8539;53.188;8.696;2023-02-23T11:27:05;7.80;99.90
16846;DHT22;8539;53.188;8.696;2023-02-23T11:29:38;7.80;99.90
16846;DHT22;8539;53.188;8.696;2023-02-23T11:34:38;7.70;99.90
16846;DHT22;8539;53.188;8.696;2023-02-23T11:37:18;7.70;99.90
16846;DHT22;8539;53.188;8.696;2023-02-23T11:39:59;7.70;99.90
16846;DHT22;8539;53.188;8.696;2023-02-23T11:42:30;7.70;99.90
16846;DHT22;8539;53.188;8.696;2023-02-23T11:47:33;7.70;99.90
16846;DHT22;8539;53.188;8.696;2023-02-23T11:50:04;7.70;99.90
16846;DHT22;8539;53.188;8.696;2023-02-23T11:52:31;7.70;99.90
16846;DHT22;8539;53.188;8.696;2023-02-23T11:55:00;7.80;99.90
16846;DHT22;8539;53.188;8.696;2023-02-23T11:57:30;7.70;99.90
16846;DHT22;8539;53.188;8.696;2023-02-23T12:00:03;7.70;99.90
16846;DHT22;8539;53.188;8.696;2023-02-23T12:02:47;7.80;99.90
16846;DHT22;8539;53.188;8.696;2023-02-23T12:05:26;7.70;99.90
16846;DHT22;8539;53.188;8.696;2023-02-23T12:08:18;7.70;99.90
16846;DHT22;8539;53.188;8.696;2023-02-23T12:10:49;7.70;99.90
16846;DHT22;8539;53.188;8.696;2023-02-23T12:16:36;7.60;99.90
16846;DHT22;8539;53.188;8.696;2023-02-23T12:19:29;7.60;99.90
16846;DHT22;8539;53.188;8.696;2023-02-23T12:22:14;7.60;99.90
16846;DHT22;8539;53.188;8.696;2023-02-23T12:27:22;7.50;99.90
16846;DHT22;8539;53.188;8.696;2023-02-23T12:32:27;7.40;99.90
16846;DHT22;8539;53.188;8.696;2023-02-23T12:35:05;7.40;99.90
16846;DHT22;8539;53.188;8.696;2023-02-23T12:40:26;7.40;99.90
16846;DHT22;8539;53.188;8.696;2023-02-23T12:43:15;7.50;99.90
16846;DHT22;8539;53.188;8.696;2023-02-23T12:45:48;7.40;99.90
16846;DHT22;8539;53.188;8.696;2023-02-23T12:50:55;7.50;99.90
16846;DHT22;8539;53.188;8.696;2023-02-23T12:53:25;7.50;99.90
16846;DHT22;8539;53.188;8.696;2023-02-23T13:07:31;7.80;99.90
16846;DHT22;8539;53.188;8.696;2023-02-23T13:10:19;7.80;99.90
16846;DHT22;8539;53.188;8.696;2023-02-23T13:16:03;8.00;99.90
16846;DHT22;8539;53.188;8.696;2023-02-23T13:18:59;8.10;99.90
16846;DHT22;8539;53.188;8.696;2023-02-23T13:24:20;8.30;99.90
16846;DHT22;8539;53.188;8.696;2023-02-23T13:29:44;8.30;99.90
16846;DHT22;8539;53.188;8.696;2023-02-23T13:32:16;8.30;99.90
16846;DHT22;8539;53.188;8.696;2023-02-23T13:37:15;8.40;99.90
16846;DHT22;8539;53.188;8.696;2023-02-23T13:47:43;8.30;99.90
16846;DHT22;8539;53.188;8.696;2023-02-23T13:52:48;8.30;99.90
16846;DHT22;8539;53.188;8.696;2023-02-23T13:58:02;8.20;99.90
16846;DHT22;8539;53.188;8.696;2023-02-23T14:00:28;8.20;99.90
16846;DHT22;8539;53.188;8.696;2023-02-23T14:02:55;8.20;99.90
16846;DHT22;8539;53.188;8.696;2023-02-23T14:05:23;8.20;99.90
16846;DHT22;8539;53.188;8.696;2023-02-23T14:08:04;8.30;99.90
16846;DHT22;8539;53.188;8.696;2023-02-23T14:10:42;8.30;99.90
16846;DHT22;8539;53.188;8.696;2023-02-23T14:16:06;8.30;99.90
16846;DHT22;8539;53.188;8.696;2023-02-23T14:18:33;8.30;99.90
16846;DHT22;8539;53.188;8.696;2023-02-23T14:21:14;8.40;99.90
16846;DHT22;8539;53.188;8.696;2023-02-23T14:32:26;8.50;99.90
16846;DHT22;8539;53.188;8.696;2023-02-23T14:34:52;8.50;99.90
16846;DHT22;8539;53.188;8.696;2023-02-23T14:37:39;8.50;99.90
16846;DHT22;8539;53.188;8.696;2023-02-23T14:40:16;8.50;99.90
16846;DHT22;8539;53.188;8.696;2023-02-23T14:42:49;8.50;99.90
16846;DHT22;8539;53.188;8.696;2023-02-23T14:45:21;8.60;99.90
16846;DHT22;8539;53.188;8.696;2023-02-23T14:48:10;8.60;99.90
16846;DHT22;8539;53.188;8.696;2023-02-23T14:50:38;8.60;99.90
16846;DHT22;8539;53.188;8.696;2023-02-23T14:53:12;8.50;99.90
16846;DHT22;8539;53.188;8.696;2023-02-23T14:55:43;8.60;99.90
16846;DHT22;8539;53.188;8.696;2023-02-23T14:58:28;8.50;99.90
16846;DHT22;8539;53.188;8.696;2023-02-23T15:00:55;8.60;99.90
16846;DHT22;8539;53.188;8.696;2023-02-23T15:03:21;8.40;99.90
16846;DHT22;8539;53.188;8.696;2023-02-23T15:05:56;8.40;99.90
16846;DHT22;8539;53.188;8.696;2023-02-23T15:08:25;8.40;99.90
16846;DHT22;8539;53.188;8.696;2023-02-23T15:10:59;8.40;99.90
16846;DHT22;8539;53.188;8.696;2023-02-23T15:13:29;8.30;99.90
16846;DHT22;8539;53.188;8.696;2023-02-23T15:15:56;8.30;99.90
16846;DHT22;8539;53.188;8.696;2023-02-23T15:18:31;8.30;99.90
16846;DHT22;8539;53.188;8.696;2023-02-23T15:21:05;8.30;99.90
16846;DHT22;8539;53.188;8.696;2023-02-23T15:23:35;8.20;99.90
16846;DHT22;8539;53.188;8.696;2023-02-23T15:26:26;8.20;99.90
16846;DHT22;8539;53.188;8.696;2023-02-23T15:31:36;8.10;99.90
16846;DHT22;8539;53.188;8.696;2023-02-23T15:34:11;8.00;99.90
16846;DHT22;8539;53.188;8.696;2023-02-23T15:36:38;7.90;99.90
16846;DHT22;8539;53.188;8.696;2023-02-23T15:39:07;7.80;99.90
16846;DHT22;8539;53.188;8.696;2023-02-23T15:41:37;7.70;99.90
16846;DHT22;8539;53.188;8.696;2023-02-23T15:44:23;7.50;99.90
16846;DHT22;8539;53.188;8.696;2023-02-23T15:47:17;7.30;99.90
16846;DHT22;8539;53.188;8.696;2023-02-23T15:49:43;7.10;99.90
16846;DHT22;8539;53.188;8.696;2023-02-23T15:52:19;6.90;99.90
16846;DHT22;8539;53.188;8.696;2023-02-23T16:00:37;6.50;99.90
16846;DHT22;8539;53.188;8.696;2023-02-23T16:03:06;6.40;99.90
16846;DHT22;8539;53.188;8.696;2023-02-23T16:05:35;6.40;99.90
16846;DHT22;8539;53.188;8.696;2023-02-23T16:08:19;6.30;99.90
16846;DHT22;8539;53.188;8.696;2023-02-23T16:10:50;6.30;99.90
16846;DHT22;8539;53.188;8.696;2023-02-23T16:13:20;6.10;99.90
16846;DHT22;8539;53.188;8.696;2023-02-23T16:15:48;6.10;99.90
16846;DHT22;8539;53.188;8.696;2023-02-23T16:18:33;6.00;99.90
16846;DHT22;8539;53.188;8.696;2023-02-23T16:20:59;5.90;99.90
16846;DHT22;8539;53.188;8.696;2023-02-23T16:23:32;5.80;99.90
16846;DHT22;8539;53.188;8.696;2023-02-23T16:26:25;5.80;99.90
16846;DHT22;8539;53.188;8.696;2023-02-23T16:28:57;5.70;99.90
16846;DHT22;8539;53.188;8.696;2023-02-23T16:31:45;5.70;99.90
16846;DHT22;8539;53.188;8.696;2023-02-23T16:37:11;5.60;99.90
16846;DHT22;8539;53.188;8.696;2023-02-23T16:39:40;5.60;99.90
16846;DHT22;8539;53.188;8.696;2023-02-23T16:44:47;5.60;99.90
16846;DHT22;8539;53.188;8.696;2023-02-23T16:49:49;5.50;99.90
16846;DHT22;8539;53.188;8.696;2023-02-23T16:52:18;5.50;99.90
16846;DHT22;8539;53.188;8.696;2023-02-23T16:54:46;5.50;99.90
16846;DHT22;8539;53.188;8.696;2023-02-23T16:57:27;5.50;99.90
16846;DHT22;8539;53.188;8.696;2023-02-23T16:59:54;5.60;99.90
16846;DHT22;8539;53.188;8.696;2023-02-23T17:02:22;5.50;99.90
16846;DHT22;8539;53.188;8.696;2023-02-23T17:04:49;5.50;99.90
16846;DHT22;8539;53.188;8.696;2023-02-23T17:07:18;5.40;99.90
16846;DHT22;8539;53.188;8.696;2023-02-23T17:09:44;5.40;99.90
16846;DHT22;8539;53.188;8.696;2023-02-23T17:12:13;5.40;99.90
16846;DHT22;8539;53.188;8.696;2023-02-23T17:14:43;5.30;99.90
16846;DHT22;8539;53.188;8.696;2023-02-23T17:17:16;5.30;99.90
16846;DHT22;8539;53.188;8.696;2023-02-23T17:19:43;5.30;99.90
16846;DHT22;8539;53.188;8.696;2023-02-23T17:22:12;5.20;99.90
16846;DHT22;8539;53.188;8.696;2023-02-23T17:24:39;5.20;99.90
16846;DHT22;8539;53.188;8.696;2023-02-23T17:27:05;5.20;99.90
16846;DHT22;8539;53.188;8.696;2023-02-23T17:29:32;5.10;99.90
16846;DHT22;8539;53.188;8.696;2023-02-23T17:31:58;5.10;99.90
16846;DHT22;8539;53.188;8.696;2023-02-23T17:34:25;5.00;99.90
16846;DHT22;8539;53.188;8.696;2023-02-23T17:36:51;5.00;99.90
16846;DHT22;8539;53.188;8.696;2023-02-23T17:39:17;5.00;99.90
16846;DHT22;8539;53.188;8.696;2023-02-23T17:41:44;5.10;99.90
16846;DHT22;8539;53.188;8.696;2023-02-23T17:44:10;4.80;99.90
16846;DHT22;8539;53.188;8.696;2023-02-23T17:46:36;4.80;99.90
16846;DHT22;8539;53.188;8.696;2023-02-23T17:49:02;5.00;99.90
16846;DHT22;8539;53.188;8.696;2023-02-23T17:51:29;4.70;99.90
16846;DHT22;8539;53.188;8.696;2023-02-23T17:53:55;4.70;99.90
16846;DHT22;8539;53.188;8.696;2023-02-23T17:56:21;4.60;99.90
16846;DHT22;8539;53.188;8.696;2023-02-23T17:58:49;4.60;99.90
16846;DHT22;8539;53.188;8.696;2023-02-23T18:01:15;4.60;99.90
16846;DHT22;8539;53.188;8.696;2023-02-23T18:03:42;4.60;99.90
16846;DHT22;8539;53.188;8.696;2023-02-23T18:06:10;4.60;99.90
16846;DHT22;8539;53.188;8.696;2023-02-23T18:08:38;4.60;99.90
16846;DHT22;8539;53.188;8.696;2023-02-23T18:11:05;4.50;99.90
16846;DHT22;8539;53.188;8.696;2023-02-23T18:13:31;4.70;99.90
16846;DHT22;8539;53.188;8.696;2023-02-23T18:16:05;4.60;99.90
16846;DHT22;8539;53.188;8.696;2023-02-23T18:18:35;4.60;99.90
16846;DHT22;8539;53.188;8.696;2023-02-23T18:21:03;4.60;99.90
16846;DHT22;8539;53.188;8.696;2023-02-23T18:23:30;4.60;99.90
16846;DHT22;8539;53.188;8.696;2023-02-23T18:26:05;4.60;99.90
16846;DHT22;8539;53.188;8.696;2023-02-23T18:28:32;4.50;99.90
16846;DHT22;8539;53.188;8.696;2023-02-23T18:30:59;4.50;99.90
16846;DHT22;8539;53.188;8.696;2023-02-23T18:33:26;4.50;99.90
16846;DHT22;8539;53.188;8.696;2023-02-23T18:35:52;4.50;99.90
16846;DHT22;8539;53.188;8.696;2023-02-23T18:38:20;4.60;99.90
16846;DHT22;8539;53.188;8.696;2023-02-23T18:40:46;4.50;99.90
16846;DHT22;8539;53.188;8.696;2023-02-23T18:43:13;4.40;99.90
16846;DHT22;8539;53.188;8.696;2023-02-23T18:45:40;4.40;99.90
16846;DHT22;8539;53.188;8.696;2023-02-23T18:48:06;4.40;99.90